createdAt,value
2022-08-11T00:02:14.503Z,74.55
2022-08-11T00:05:16.577Z,74.35
2022-08-11T00:08:07.025Z,73.97
2022-08-11T00:11:05.823Z,74.14
2022-08-11T00:13:56.457Z,73.76
2022-08-11T00:17:05.382Z,73.66
2022-08-11T00:20:14.733Z,73.74
2022-08-11T00:23:19.733Z,73.26
2022-08-11T00:26:10.750Z,73.00
2022-08-11T00:29:13.977Z,72.78
2022-08-11T00:32:06.494Z,72.06
2022-08-11T00:35:49.904Z,71.67
2022-08-11T00:38:08.720Z,71.81
2022-08-11T00:41:25.563Z,71.63
2022-08-11T00:44:43.383Z,71.52
2022-08-11T00:47:34.650Z,71.60
2022-08-11T00:50:24.796Z,70.73
2022-08-11T00:53:52.252Z,70.46
2022-08-11T00:56:59.776Z,70.60
2022-08-11T01:00:15.208Z,70.36
2022-08-11T01:03:27.230Z,70.08
2022-08-11T01:06:50.812Z,69.65
2022-08-11T01:09:52.468Z,69.59
2022-08-11T01:13:00.080Z,68.63
2022-08-11T01:16:11.024Z,69.26
2022-08-11T01:19:04.094Z,69.68
2022-08-11T01:22:26.010Z,69.51
2022-08-11T01:25:56.940Z,68.44
2022-08-11T01:29:20.617Z,66.71
2022-08-11T01:32:24.781Z,65.94
2022-08-11T01:35:32.962Z,66.54
2022-08-11T01:38:45.832Z,66.10
2022-08-11T01:42:02.921Z,66.74
2022-08-11T01:45:38.636Z,66.19
2022-08-11T01:48:50.070Z,64.68
2022-08-11T01:51:55.804Z,63.67
2022-08-11T01:55:02.159Z,64.20
2022-08-11T01:58:40.835Z,63.52
2022-08-11T02:02:01.908Z,62.54
2022-08-11T02:05:01.148Z,61.87
2022-08-11T02:08:13.188Z,62.97
2022-08-11T02:11:35.830Z,62.21
2022-08-11T02:14:39.969Z,63.54
2022-08-11T02:18:03.813Z,63.23
2022-08-11T02:21:21.044Z,61.95
2022-08-11T02:24:25.363Z,62.95
2022-08-11T02:27:28.692Z,62.57
2022-08-11T02:30:20.588Z,62.06
2022-08-11T02:33:27.435Z,61.41
2022-08-11T02:36:22.882Z,61.51
2022-08-11T02:39:16.898Z,61.16
2022-08-11T02:42:32.817Z,61.12
2022-08-11T02:45:37.691Z,60.73
2022-08-11T02:49:04.350Z,61.89
2022-08-11T02:51:58.102Z,60.87
2022-08-11T02:55:13.449Z,60.56
2022-08-11T02:58:51.799Z,58.81
2022-08-11T03:02:05.253Z,58.94
2022-08-11T03:05:05.243Z,58.56
2022-08-11T03:08:10.494Z,58.79
2022-08-11T03:11:23.627Z,57.21
2022-08-11T03:14:40.833Z,58.32
2022-08-11T03:17:34.971Z,59.54
2022-08-11T03:20:38.153Z,59.35
2022-08-11T03:24:08.129Z,59.53
2022-08-11T03:27:13.094Z,59.32
2022-08-11T03:30:19.558Z,59.36
2022-08-11T03:33:50.482Z,60.39
2022-08-11T03:37:16.944Z,59.47
2022-08-11T03:40:44.856Z,58.93
2022-08-11T03:43:50.135Z,59.96
2022-08-11T03:47:09.457Z,59.09
2022-08-11T03:50:26.947Z,58.62
2022-08-11T03:53:43.738Z,59.07
2022-08-11T03:56:54.378Z,58.84
2022-08-11T03:59:46.678Z,58.12
2022-08-11T04:02:55.669Z,58.60
2022-08-11T04:06:15.231Z,58.55
2022-08-11T04:09:38.856Z,59.40
2022-08-11T04:12:52.968Z,58.78
2022-08-11T04:16:11.598Z,58.57
2022-08-11T04:19:40.032Z,58.84
2022-08-11T04:22:32.511Z,58.27
2022-08-11T04:25:57.870Z,57.50
2022-08-11T04:29:13.111Z,57.85
2022-08-11T04:32:21.950Z,57.80
2022-08-11T04:35:32.568Z,57.21
2022-08-11T04:38:40.477Z,58.33
2022-08-11T04:42:06.183Z,57.20
2022-08-11T04:45:12.383Z,57.23
2022-08-11T04:48:57.793Z,58.70
2022-08-11T04:52:06.022Z,57.64
2022-08-11T04:55:40.465Z,57.92
2022-08-11T04:59:04.926Z,56.97
2022-08-11T05:02:22.984Z,55.81
2022-08-11T05:05:34.734Z,55.77
2022-08-11T05:08:31.213Z,55.76
2022-08-11T05:11:27.655Z,54.65
2022-08-11T05:14:47.303Z,55.37
2022-08-11T05:18:06.416Z,54.94
2022-08-11T05:21:16.343Z,53.94
2022-08-11T05:24:57.862Z,54.55
2022-08-11T05:28:54.667Z,55.01
2022-08-11T05:32:08.661Z,54.78
2022-08-11T05:35:00.125Z,54.09
2022-08-11T05:38:09.384Z,54.53
2022-08-11T05:41:18.319Z,54.92
2022-08-11T05:44:27.354Z,55.21
2022-08-11T05:47:46.150Z,55.47
2022-08-11T05:50:55.333Z,55.94
2022-08-11T05:54:27.864Z,55.41
2022-08-11T05:57:49.647Z,56.26
2022-08-11T06:00:47.749Z,56.06
2022-08-11T06:03:58.923Z,56.52
2022-08-11T06:06:55.034Z,56.23
2022-08-11T06:09:50.142Z,56.41
2022-08-11T06:12:42.189Z,56.09
2022-08-11T06:15:34.450Z,56.49
2022-08-11T06:18:24.886Z,56.31
2022-08-11T06:21:15.194Z,56.51
2022-08-11T06:24:16.469Z,56.77
2022-08-11T06:27:13.109Z,56.86
2022-08-11T06:30:04.132Z,57.13
2022-08-11T06:32:56.863Z,56.45
2022-08-11T06:36:12.421Z,56.46
2022-08-11T06:39:21.700Z,57.07
2022-08-11T06:42:16.127Z,56.79
2022-08-11T06:45:22.263Z,57.59
2022-08-11T06:48:19.775Z,58.10
2022-08-11T06:51:13.830Z,57.66
2022-08-11T06:54:05.821Z,57.46
2022-08-11T06:57:31.062Z,57.58
2022-08-11T07:00:33.020Z,57.05
2022-08-11T07:03:24.220Z,57.48
2022-08-11T07:06:50.577Z,57.59
2022-08-11T07:10:36.076Z,58.41
2022-08-11T07:13:45.894Z,57.67
2022-08-11T07:16:36.846Z,56.85
2022-08-11T07:19:47.418Z,56.73
2022-08-11T07:22:56.985Z,56.89
2022-08-11T07:26:09.093Z,57.03
2022-08-11T07:29:03.169Z,57.57
2022-08-11T07:31:55.376Z,57.80
2022-08-11T07:34:54.601Z,57.52
2022-08-11T07:38:01.771Z,58.39
2022-08-11T07:40:53.139Z,58.37
2022-08-11T07:43:45.668Z,58.27
2022-08-11T07:46:54.206Z,58.22
2022-08-11T07:50:05.628Z,58.63
2022-08-11T07:52:56.770Z,58.08
2022-08-11T07:55:50.174Z,58.51
2022-08-11T07:59:05.239Z,58.35
2022-08-11T08:02:16.731Z,58.67
2022-08-11T08:05:27.345Z,58.96
2022-08-11T08:08:36.246Z,58.82
2022-08-11T08:11:45.768Z,59.37
2022-08-11T08:14:54.574Z,59.83
2022-08-11T08:18:09.162Z,60.78
2022-08-11T08:21:18.446Z,61.11
2022-08-11T08:24:09.458Z,61.47
2022-08-11T08:26:59.975Z,61.77
2022-08-11T08:30:09.652Z,62.57
2022-08-11T08:33:02.457Z,62.33
2022-08-11T08:36:13.478Z,63.00
2022-08-11T08:39:04.979Z,62.27
2022-08-11T08:41:57.915Z,62.37
2022-08-11T08:44:52.325Z,62.61
2022-08-11T08:47:47.003Z,63.49
2022-08-11T08:51:05.155Z,64.19
2022-08-11T08:53:56.388Z,64.44
2022-08-11T08:56:49.256Z,64.45
2022-08-11T08:59:48.628Z,64.20
2022-08-11T09:02:40.339Z,63.98
2022-08-11T09:05:30.011Z,64.31
2022-08-11T09:08:21.577Z,64.26
2022-08-11T09:11:31.763Z,64.07
2022-08-11T09:14:25.076Z,63.87
2022-08-11T09:17:16.596Z,65.54
2022-08-11T09:20:08.299Z,67.01
2022-08-11T09:26:50.546Z,68.75
2022-08-11T09:29:40.647Z,68.95
2022-08-11T09:32:32.938Z,69.70
2022-08-11T09:35:24.035Z,69.91
2022-08-11T09:38:35.334Z,70.28
2022-08-11T09:41:25.819Z,69.80
2022-08-11T09:44:33.951Z,69.57
2022-08-11T09:47:33.932Z,69.74
2022-08-11T09:50:23.367Z,70.05
2022-08-11T09:53:37.157Z,70.06
2022-08-11T09:56:44.534Z,69.99
2022-08-11T09:59:36.112Z,70.16
2022-08-11T10:02:30.311Z,70.68
2022-08-11T10:05:41.407Z,70.70
2022-08-11T10:08:32.659Z,70.81
2022-08-11T10:11:26.043Z,70.71
2022-08-11T10:14:37.494Z,70.10
2022-08-11T10:17:29.265Z,69.47
2022-08-11T10:20:22.671Z,70.00
2022-08-11T10:23:33.753Z,69.89
2022-08-11T10:26:47.205Z,69.97
2022-08-11T10:29:57.505Z,70.50
2022-08-11T10:33:07.907Z,70.12
2022-08-11T10:36:01.577Z,70.09
2022-08-11T10:38:53.657Z,69.86
2022-08-11T10:42:08.508Z,69.93
2022-08-11T10:45:00.977Z,70.25
2022-08-11T10:47:51.635Z,71.04
2022-08-11T10:51:00.996Z,70.75
2022-08-11T10:54:12.625Z,70.43
2022-08-11T10:57:21.311Z,70.86
2022-08-11T11:00:16.562Z,70.71
2022-08-11T11:03:22.825Z,71.23
2022-08-11T11:06:38.355Z,71.87
2022-08-11T11:10:00.952Z,71.82
2022-08-11T11:13:53.364Z,72.80
2022-08-11T11:16:52.974Z,72.95
2022-08-11T11:19:45.325Z,72.40
2022-08-11T11:22:40.623Z,73.01
2022-08-11T11:26:12.557Z,73.52
2022-08-11T11:29:10.688Z,73.00
2022-08-11T11:32:24.079Z,73.62
2022-08-11T11:35:37.897Z,73.66
2022-08-11T11:38:30.063Z,73.11
2022-08-11T11:41:27.723Z,72.93
2022-08-11T11:44:19.798Z,73.91
2022-08-11T11:47:12.873Z,74.27
2022-08-11T11:50:18.035Z,74.04
2022-08-11T11:53:21.870Z,73.27
2022-08-11T11:56:17.486Z,72.93
2022-08-11T11:59:31.132Z,72.37
2022-08-11T12:02:23.719Z,71.74
2022-08-11T12:05:19.148Z,72.31
2022-08-11T12:08:24.602Z,70.82
2022-08-11T12:11:36.671Z,70.90
2022-08-11T12:14:30.360Z,71.42
2022-08-11T12:17:25.244Z,71.29
2022-08-11T12:20:34.035Z,71.37
2022-08-11T12:23:43.565Z,70.34
2022-08-11T12:27:16.656Z,70.91
2022-08-11T12:30:13.224Z,69.43
2022-08-11T12:33:05.495Z,69.57
2022-08-11T12:36:01.614Z,69.85
2022-08-11T12:38:54.159Z,69.81
2022-08-11T12:42:04.258Z,69.74
2022-08-11T12:45:22.301Z,69.08
2022-08-11T12:49:00.765Z,69.78
2022-08-11T12:52:14.819Z,69.09
2022-08-11T12:55:14.094Z,69.79
2022-08-11T12:58:22.217Z,68.92
2022-08-11T13:01:32.591Z,69.23
2022-08-11T13:04:44.763Z,69.46
2022-08-11T13:07:50.682Z,69.51
2022-08-11T13:11:04.899Z,69.13
2022-08-11T13:14:00.221Z,69.16
2022-08-11T13:17:13.478Z,69.28
2022-08-11T13:20:05.179Z,69.17
2022-08-11T13:22:59.032Z,69.18
2022-08-11T13:25:56.213Z,69.53
2022-08-11T13:28:48.096Z,69.45
2022-08-11T13:31:40.351Z,69.33
2022-08-11T13:34:36.999Z,69.93
2022-08-11T13:38:17.990Z,69.16
2022-08-11T13:40:55.697Z,69.08
2022-08-11T13:43:47.780Z,69.09
2022-08-11T13:46:40.039Z,68.49
2022-08-11T13:49:43.141Z,68.78
2022-08-11T13:52:34.542Z,69.04
2022-08-11T13:55:45.112Z,68.64
2022-08-11T13:58:39.544Z,68.78
2022-08-11T14:02:20.019Z,68.31
2022-08-11T14:05:08.806Z,68.61
2022-08-11T14:08:07.648Z,68.71
2022-08-11T14:12:21.150Z,68.70
2022-08-11T14:14:37.244Z,68.41
2022-08-11T14:17:47.280Z,68.64
2022-08-11T14:21:15.582Z,68.58
2022-08-11T14:24:07.322Z,69.59
2022-08-11T14:26:58.887Z,69.12
2022-08-11T14:29:56.938Z,68.95
2022-08-11T14:32:55.537Z,68.68
2022-08-11T14:36:23.452Z,68.85
2022-08-11T14:39:19.477Z,68.62
2022-08-11T14:42:28.647Z,68.26
2022-08-11T14:45:58.314Z,68.10
2022-08-11T14:48:47.701Z,68.27
2022-08-11T14:51:38.129Z,68.32
2022-08-11T14:54:48.790Z,68.70
2022-08-11T14:57:54.825Z,68.41
2022-08-11T15:00:47.145Z,68.48
2022-08-11T15:03:37.345Z,68.87
2022-08-11T15:06:30.050Z,68.72
2022-08-11T15:09:20.556Z,68.83
2022-08-11T15:12:32.184Z,69.35
2022-08-11T15:15:40.582Z,69.35
2022-08-11T15:18:33.495Z,69.45
2022-08-11T15:21:41.247Z,69.25
2022-08-11T15:24:31.270Z,69.16
2022-08-11T15:27:40.740Z,69.24
2022-08-11T15:30:49.511Z,69.18
2022-08-11T15:33:59.777Z,68.71
2022-08-11T15:37:09.412Z,69.36
2022-08-11T15:40:31.272Z,68.59
2022-08-11T15:43:51.565Z,68.64
2022-08-11T15:47:00.276Z,68.49
2022-08-11T15:50:10.528Z,68.68
2022-08-11T15:53:06.158Z,68.37
2022-08-11T15:55:57.414Z,68.29
2022-08-11T15:59:10.496Z,68.45
2022-08-11T16:02:42.195Z,68.52
2022-08-11T16:05:45.879Z,69.08
2022-08-11T16:08:37.530Z,68.74
2022-08-11T16:11:27.493Z,68.86
2022-08-11T16:14:36.284Z,69.28
2022-08-11T16:17:29.854Z,69.16
2022-08-11T16:20:23.308Z,69.39
2022-08-11T16:23:13.753Z,69.44
2022-08-11T16:27:09.452Z,69.75
2022-08-11T16:29:13.877Z,70.34
2022-08-11T16:32:19.695Z,70.05
2022-08-11T16:35:42.771Z,70.05
2022-08-11T16:38:38.359Z,70.27
2022-08-11T16:41:50.542Z,70.13
2022-08-11T16:44:59.508Z,70.38
2022-08-11T16:48:33.154Z,70.66
2022-08-11T16:51:02.238Z,70.70
2022-08-11T16:54:04.666Z,70.70
2022-08-11T16:56:56.969Z,70.24
2022-08-11T16:59:46.404Z,70.63
2022-08-11T17:02:57.603Z,70.63
2022-08-11T17:06:16.353Z,70.52
2022-08-11T17:09:24.360Z,69.72
2022-08-11T17:12:32.963Z,70.22
2022-08-11T17:15:41.838Z,69.83
2022-08-11T17:18:41.689Z,70.00
2022-08-11T17:22:01.017Z,69.74
2022-08-11T17:24:52.789Z,70.08
2022-08-11T17:27:44.675Z,70.07
2022-08-11T17:30:53.153Z,70.69
2022-08-11T17:34:00.963Z,70.34
2022-08-11T17:36:52.758Z,70.81
2022-08-11T17:39:43.593Z,70.60
2022-08-11T17:42:52.848Z,70.80
2022-08-11T17:46:02.795Z,70.83
2022-08-11T17:48:54.373Z,71.42
2022-08-11T17:52:04.833Z,71.68
2022-08-11T17:55:13.750Z,71.13
2022-08-11T17:58:21.665Z,71.73
2022-08-11T18:01:12.676Z,72.42
2022-08-11T18:04:04.069Z,72.60
2022-08-11T18:06:56.372Z,72.58
2022-08-11T18:10:03.978Z,72.43
2022-08-11T18:13:13.641Z,72.64
2022-08-11T18:16:21.043Z,72.74
2022-08-11T18:19:30.793Z,72.40
2022-08-11T18:22:55.469Z,71.93
2022-08-11T18:26:07.498Z,72.53
2022-08-11T18:29:22.813Z,72.69
2022-08-11T18:32:49.204Z,73.22
2022-08-11T18:36:01.889Z,73.23
2022-08-11T18:39:10.563Z,73.34
2022-08-11T18:42:29.113Z,73.40
2022-08-11T18:45:45.315Z,73.32
2022-08-11T18:48:57.671Z,72.75
2022-08-11T18:52:08.622Z,72.96
2022-08-11T18:55:19.180Z,73.34
2022-08-11T18:58:30.188Z,73.40
2022-08-11T19:01:40.265Z,73.63
2022-08-11T19:04:51.723Z,72.91
2022-08-11T19:08:01.320Z,72.92
2022-08-11T19:11:10.532Z,73.60
2022-08-11T19:14:20.922Z,73.48
2022-08-11T19:17:43.442Z,73.30
2022-08-11T19:20:55.951Z,73.24
2022-08-11T19:24:07.321Z,73.38
2022-08-11T19:27:15.402Z,73.19
2022-08-11T19:30:24.125Z,73.78
2022-08-11T19:33:59.771Z,73.86
2022-08-11T19:37:02.196Z,73.83
2022-08-11T19:40:14.777Z,74.09
2022-08-11T19:43:26.444Z,73.92
2022-08-11T19:46:39.147Z,74.03
2022-08-11T19:49:47.565Z,74.16
2022-08-11T19:52:56.652Z,74.36
2022-08-11T19:56:08.652Z,74.18
2022-08-11T19:59:16.270Z,74.56
2022-08-11T20:02:27.980Z,74.46
2022-08-11T20:05:55.519Z,74.56
2022-08-11T20:09:09.814Z,74.82
2022-08-11T20:12:18.644Z,74.45
2022-08-11T20:15:32.129Z,74.50
2022-08-11T20:18:40.613Z,74.50
2022-08-11T20:21:49.213Z,74.65
2022-08-11T20:24:58.162Z,75.02
2022-08-11T20:28:07.057Z,74.60
2022-08-11T20:31:14.862Z,75.00
2022-08-11T20:34:23.534Z,75.34
2022-08-11T20:37:34.422Z,75.72
2022-08-11T20:40:44.808Z,75.52
2022-08-11T20:44:08.473Z,75.38
2022-08-11T20:47:18.009Z,74.95
2022-08-11T20:50:28.784Z,74.97
2022-08-11T20:53:39.372Z,75.26
2022-08-11T20:56:51.011Z,75.41
2022-08-11T20:59:58.915Z,75.30
2022-08-11T21:03:08.948Z,75.26
2022-08-11T21:06:31.155Z,75.09
2022-08-11T21:09:58.213Z,75.58
2022-08-11T21:13:18.066Z,74.74
2022-08-11T21:16:39.911Z,74.74
2022-08-11T21:19:59.799Z,74.56
2022-08-11T21:23:24.288Z,74.75
2022-08-11T21:26:35.974Z,74.06
2022-08-11T21:29:45.867Z,73.47
2022-08-11T21:32:54.257Z,73.63
2022-08-11T21:36:02.354Z,73.88
2022-08-11T21:39:10.878Z,73.34
2022-08-11T21:42:19.581Z,73.43
2022-08-11T21:45:29.749Z,74.06
2022-08-11T21:48:37.900Z,73.72
2022-08-11T21:51:46.204Z,73.37
2022-08-11T21:54:53.556Z,73.34
2022-08-11T21:58:01.917Z,73.71
2022-08-11T22:01:09.779Z,74.08
2022-08-11T22:04:18.966Z,73.91
2022-08-11T22:07:27.366Z,73.43
2022-08-11T22:10:42.525Z,72.88
2022-08-11T22:14:05.946Z,73.10
2022-08-11T22:17:16.219Z,72.83
2022-08-11T22:20:25.864Z,73.57
2022-08-11T22:23:37.055Z,73.79
2022-08-11T22:26:47.548Z,73.14
2022-08-11T22:29:55.908Z,73.11
2022-08-11T22:33:04.703Z,72.50
2022-08-11T22:36:13.833Z,72.42
2022-08-11T22:39:23.616Z,72.27
2022-08-11T22:42:33.567Z,71.96
2022-08-11T22:45:42.042Z,71.52
2022-08-11T22:48:51.180Z,71.90
2022-08-11T22:52:01.187Z,72.46
2022-08-11T22:55:11.216Z,72.13
2022-08-11T22:58:19.097Z,72.46
2022-08-11T23:01:28.103Z,72.21
2022-08-11T23:04:37.570Z,72.28
2022-08-11T23:07:51.261Z,72.36
2022-08-11T23:10:59.952Z,72.49
2022-08-11T23:14:08.131Z,72.81
2022-08-11T23:17:16.416Z,73.07
2022-08-11T23:20:38.898Z,73.42
2022-08-11T23:23:52.922Z,73.67
2022-08-11T23:27:01.206Z,73.65
2022-08-11T23:30:11.503Z,74.05
2022-08-11T23:33:21.404Z,73.91
2022-08-11T23:36:36.174Z,74.07
2022-08-11T23:39:54.685Z,74.10
2022-08-11T23:43:02.298Z,74.22
2022-08-11T23:46:10.757Z,74.32
2022-08-11T23:49:22.803Z,73.93
2022-08-11T23:52:34.703Z,74.35
2022-08-11T23:55:43.220Z,74.39
2022-08-11T23:58:53.073Z,73.71
